sensor_id;sensor_type;location;lat;lon;timestamp;P1;durP1;ratioP1;P2;durP2;ratioP2
65279;SDS011;51878;55.748;48.742;2022-09-09T00:01:07;5.95;;;4.72;;
65279;SDS011;51878;55.748;48.742;2022-09-09T00:03:43;4.28;;;3.75;;
65279;SDS011;51878;55.748;48.742;2022-09-09T00:06:21;5.63;;;3.80;;
65279;SDS011;51878;55.748;48.742;2022-09-09T00:09:12;4.85;;;3.95;;
65279;SDS011;51878;55.748;48.742;2022-09-09T00:14:26;5.63;;;4.65;;
65279;SDS011;51878;55.748;48.742;2022-09-09T00:17:08;4.82;;;4.20;;
65279;SDS011;51878;55.748;48.742;2022-09-09T00:22:32;5.57;;;4.72;;
65279;SDS011;51878;55.748;48.742;2022-09-09T00:25:10;5.13;;;4.63;;
65279;SDS011;51878;55.748;48.742;2022-09-09T00:27:49;7.82;;;4.35;;
65279;SDS011;51878;55.748;48.742;2022-09-09T00:30:24;6.38;;;4.57;;
65279;SDS011;51878;55.748;48.742;2022-09-09T00:32:53;5.20;;;3.92;;
65279;SDS011;51878;55.748;48.742;2022-09-09T00:35:46;4.40;;;4.00;;
65279;SDS011;51878;55.748;48.742;2022-09-09T00:40:53;5.70;;;4.55;;
65279;SDS011;51878;55.748;48.742;2022-09-09T00:43:38;6.18;;;4.22;;
65279;SDS011;51878;55.748;48.742;2022-09-09T00:52:19;5.18;;;4.13;;
65279;SDS011;51878;55.748;48.742;2022-09-09T00:57:38;5.20;;;4.50;;
65279;SDS011;51878;55.748;48.742;2022-09-09T01:00:27;6.05;;;4.07;;
65279;SDS011;51878;55.748;48.742;2022-09-09T01:08:39;7.50;;;3.40;;
65279;SDS011;51878;55.748;48.742;2022-09-09T01:14:29;3.85;;;3.20;;
65279;SDS011;51878;55.748;48.742;2022-09-09T01:16:59;4.55;;;3.53;;
65279;SDS011;51878;55.748;48.742;2022-09-09T01:27:58;9.77;;;4.20;;
65279;SDS011;51878;55.748;48.742;2022-09-09T01:30:34;11.05;;;4.15;;
65279;SDS011;51878;55.748;48.742;2022-09-09T01:33:03;6.18;;;4.13;;
65279;SDS011;51878;55.748;48.742;2022-09-09T01:35:40;15.65;;;3.88;;
65279;SDS011;51878;55.748;48.742;2022-09-09T01:38:17;5.93;;;3.70;;
65279;SDS011;51878;55.748;48.742;2022-09-09T01:40:44;8.75;;;3.90;;
65279;SDS011;51878;55.748;48.742;2022-09-09T01:43:12;6.53;;;3.38;;
65279;SDS011;51878;55.748;48.742;2022-09-09T01:45:40;13.70;;;3.25;;
65279;SDS011;51878;55.748;48.742;2022-09-09T01:48:10;4.15;;;3.28;;
65279;SDS011;51878;55.748;48.742;2022-09-09T01:50:37;4.38;;;2.63;;
65279;SDS011;51878;55.748;48.742;2022-09-09T01:53:04;7.85;;;2.92;;
65279;SDS011;51878;55.748;48.742;2022-09-09T01:55:32;4.57;;;3.10;;
65279;SDS011;51878;55.748;48.742;2022-09-09T02:00:41;3.50;;;2.72;;
65279;SDS011;51878;55.748;48.742;2022-09-09T02:03:21;3.67;;;2.95;;
65279;SDS011;51878;55.748;48.742;2022-09-09T02:08:47;8.63;;;3.60;;
65279;SDS011;51878;55.748;48.742;2022-09-09T02:11:17;3.80;;;2.88;;
65279;SDS011;51878;55.748;48.742;2022-09-09T02:13:46;7.88;;;3.03;;
65279;SDS011;51878;55.748;48.742;2022-09-09T02:19:00;3.95;;;2.90;;
65279;SDS011;51878;55.748;48.742;2022-09-09T02:21:28;3.92;;;2.58;;
65279;SDS011;51878;55.748;48.742;2022-09-09T02:23:59;3.17;;;2.88;;
65279;SDS011;51878;55.748;48.742;2022-09-09T02:26:31;3.88;;;3.00;;
65279;SDS011;51878;55.748;48.742;2022-09-09T02:29:01;5.13;;;3.25;;
65279;SDS011;51878;55.748;48.742;2022-09-09T02:31:30;3.50;;;2.80;;
65279;SDS011;51878;55.748;48.742;2022-09-09T02:33:59;7.88;;;2.70;;
65279;SDS011;51878;55.748;48.742;2022-09-09T02:36:30;2.60;;;2.15;;
65279;SDS011;51878;55.748;48.742;2022-09-09T02:39:00;3.13;;;2.25;;
65279;SDS011;51878;55.748;48.742;2022-09-09T02:41:34;3.15;;;2.10;;
65279;SDS011;51878;55.748;48.742;2022-09-09T02:44:13;2.00;;;1.80;;
65279;SDS011;51878;55.748;48.742;2022-09-09T02:49:15;1.90;;;1.80;;
65279;SDS011;51878;55.748;48.742;2022-09-09T02:52:22;1.70;;;1.40;;
65279;SDS011;51878;55.748;48.742;2022-09-09T02:54:44;3.45;;;1.95;;
65279;SDS011;51878;55.748;48.742;2022-09-09T02:57:13;1.70;;;1.60;;
65279;SDS011;51878;55.748;48.742;2022-09-09T02:59:49;1.55;;;1.45;;
65279;SDS011;51878;55.748;48.742;2022-09-09T03:02:18;2.78;;;1.55;;
65279;SDS011;51878;55.748;48.742;2022-09-09T03:04:45;1.70;;;1.42;;
65279;SDS011;51878;55.748;48.742;2022-09-09T03:07:18;1.88;;;1.40;;
65279;SDS011;51878;55.748;48.742;2022-09-09T03:09:46;2.75;;;1.45;;
65279;SDS011;51878;55.748;48.742;2022-09-09T03:12:13;2.22;;;1.50;;
65279;SDS011;51878;55.748;48.742;2022-09-09T03:14:40;1.50;;;1.38;;
65279;SDS011;51878;55.748;48.742;2022-09-09T03:17:07;2.15;;;1.30;;
65279;SDS011;51878;55.748;48.742;2022-09-09T03:19:35;1.48;;;1.38;;
65279;SDS011;51878;55.748;48.742;2022-09-09T03:22:04;1.30;;;1.20;;
65279;SDS011;51878;55.748;48.742;2022-09-09T03:24:31;3.47;;;1.30;;
65279;SDS011;51878;55.748;48.742;2022-09-09T03:26:58;1.65;;;1.55;;
65279;SDS011;51878;55.748;48.742;2022-09-09T03:29:25;1.45;;;1.35;;
65279;SDS011;51878;55.748;48.742;2022-09-09T03:31:52;1.40;;;1.30;;
65279;SDS011;51878;55.748;48.742;2022-09-09T03:34:19;2.75;;;1.40;;
65279;SDS011;51878;55.748;48.742;2022-09-09T03:36:46;1.20;;;1.10;;
65279;SDS011;51878;55.748;48.742;2022-09-09T03:39:15;1.27;;;1.17;;
65279;SDS011;51878;55.748;48.742;2022-09-09T03:41:42;1.27;;;1.17;;
65279;SDS011;51878;55.748;48.742;2022-09-09T03:44:11;1.10;;;1.08;;
65279;SDS011;51878;55.748;48.742;2022-09-09T03:46:38;1.10;;;1.10;;
65279;SDS011;51878;55.748;48.742;2022-09-09T03:49:06;1.30;;;1.20;;
65279;SDS011;51878;55.748;48.742;2022-09-09T03:51:33;2.95;;;1.17;;
65279;SDS011;51878;55.748;48.742;2022-09-09T03:54:03;2.70;;;1.38;;
65279;SDS011;51878;55.748;48.742;2022-09-09T03:56:31;1.08;;;1.08;;
65279;SDS011;51878;55.748;48.742;2022-09-09T03:58:58;1.05;;;1.05;;
65279;SDS011;51878;55.748;48.742;2022-09-09T04:01:25;1.00;;;1.00;;
65279;SDS011;51878;55.748;48.742;2022-09-09T04:03:53;2.63;;;1.30;;
65279;SDS011;51878;55.748;48.742;2022-09-09T04:06:21;1.00;;;1.00;;
65279;SDS011;51878;55.748;48.742;2022-09-09T04:08:49;1.23;;;1.13;;
65279;SDS011;51878;55.748;48.742;2022-09-09T04:11:16;1.27;;;1.17;;
65279;SDS011;51878;55.748;48.742;2022-09-09T04:13:43;1.20;;;1.10;;
65279;SDS011;51878;55.748;48.742;2022-09-09T04:16:11;2.78;;;1.40;;
65279;SDS011;51878;55.748;48.742;2022-09-09T04:18:42;1.42;;;1.33;;
65279;SDS011;51878;55.748;48.742;2022-09-09T04:21:10;1.70;;;1.00;;
65279;SDS011;51878;55.748;48.742;2022-09-09T04:23:38;1.10;;;1.10;;
65279;SDS011;51878;55.748;48.742;2022-09-09T04:26:05;1.00;;;1.00;;
65279;SDS011;51878;55.748;48.742;2022-09-09T04:28:33;1.35;;;1.20;;
65279;SDS011;51878;55.748;48.742;2022-09-09T04:31:09;1.30;;;1.20;;
65279;SDS011;51878;55.748;48.742;2022-09-09T04:33:41;1.30;;;1.25;;
65279;SDS011;51878;55.748;48.742;2022-09-09T04:36:08;1.23;;;1.15;;
65279;SDS011;51878;55.748;48.742;2022-09-09T04:38:35;1.15;;;1.02;;
65279;SDS011;51878;55.748;48.742;2022-09-09T04:41:02;1.23;;;1.13;;
65279;SDS011;51878;55.748;48.742;2022-09-09T04:43:30;1.00;;;0.90;;
65279;SDS011;51878;55.748;48.742;2022-09-09T04:45:58;2.00;;;0.80;;
65279;SDS011;51878;55.748;48.742;2022-09-09T04:48:28;4.25;;;0.80;;
65279;SDS011;51878;55.748;48.742;2022-09-09T04:50:59;1.25;;;0.80;;
65279;SDS011;51878;55.748;48.742;2022-09-09T04:53:31;1.83;;;1.08;;
65279;SDS011;51878;55.748;48.742;2022-09-09T04:56:10;0.88;;;0.88;;
65279;SDS011;51878;55.748;48.742;2022-09-09T04:58:39;0.65;;;0.65;;
65279;SDS011;51878;55.748;48.742;2022-09-09T05:01:10;1.23;;;0.80;;
65279;SDS011;51878;55.748;48.742;2022-09-09T05:03:39;0.82;;;0.73;;
65279;SDS011;51878;55.748;48.742;2022-09-09T05:06:08;0.90;;;0.70;;
65279;SDS011;51878;55.748;48.742;2022-09-09T05:08:37;1.00;;;0.70;;
65279;SDS011;51878;55.748;48.742;2022-09-09T05:11:15;0.50;;;0.50;;
65279;SDS011;51878;55.748;48.742;2022-09-09T05:13:47;0.35;;;0.35;;
65279;SDS011;51878;55.748;48.742;2022-09-09T05:16:14;0.38;;;0.38;;
65279;SDS011;51878;55.748;48.742;2022-09-09T05:18:42;0.47;;;0.40;;
65279;SDS011;51878;55.748;48.742;2022-09-09T05:21:10;0.40;;;0.40;;
65279;SDS011;51878;55.748;48.742;2022-09-09T05:23:38;0.50;;;0.50;;
65279;SDS011;51878;55.748;48.742;2022-09-09T05:26:06;0.50;;;0.50;;
65279;SDS011;51878;55.748;48.742;2022-09-09T05:28:37;0.40;;;0.40;;
65279;SDS011;51878;55.748;48.742;2022-09-09T05:31:06;0.55;;;0.50;;
65279;SDS011;51878;55.748;48.742;2022-09-09T05:33:41;0.50;;;0.50;;
65279;SDS011;51878;55.748;48.742;2022-09-09T05:36:10;0.50;;;0.50;;
65279;SDS011;51878;55.748;48.742;2022-09-09T05:38:42;0.50;;;0.50;;
65279;SDS011;51878;55.748;48.742;2022-09-09T05:41:10;0.80;;;0.50;;
65279;SDS011;51878;55.748;48.742;2022-09-09T05:43:38;0.30;;;0.30;;
65279;SDS011;51878;55.748;48.742;2022-09-09T05:46:07;1.15;;;0.80;;
65279;SDS011;51878;55.748;48.742;2022-09-09T05:48:37;0.95;;;0.60;;
65279;SDS011;51878;55.748;48.742;2022-09-09T05:51:07;0.68;;;0.68;;
65279;SDS011;51878;55.748;48.742;2022-09-09T05:53:37;0.50;;;0.50;;
65279;SDS011;51878;55.748;48.742;2022-09-09T05:56:05;0.70;;;0.70;;
65279;SDS011;51878;55.748;48.742;2022-09-09T05:58:37;1.13;;;0.65;;
65279;SDS011;51878;55.748;48.742;2022-09-09T06:01:14;0.50;;;0.50;;
65279;SDS011;51878;55.748;48.742;2022-09-09T06:03:44;0.68;;;0.68;;
65279;SDS011;51878;55.748;48.742;2022-09-09T06:06:16;0.60;;;0.60;;
65279;SDS011;51878;55.748;48.742;2022-09-09T06:08:47;0.52;;;0.52;;
65279;SDS011;51878;55.748;48.742;2022-09-09T06:11:18;1.00;;;0.70;;
65279;SDS011;51878;55.748;48.742;2022-09-09T06:13:48;1.52;;;0.60;;
65279;SDS011;51878;55.748;48.742;2022-09-09T06:16:22;0.50;;;0.50;;
65279;SDS011;51878;55.748;48.742;2022-09-09T06:18:52;0.70;;;0.70;;
65279;SDS011;51878;55.748;48.742;2022-09-09T06:21:24;0.70;;;0.70;;
65279;SDS011;51878;55.748;48.742;2022-09-09T06:23:52;0.80;;;0.80;;
65279;SDS011;51878;55.748;48.742;2022-09-09T06:26:28;0.93;;;0.80;;
65279;SDS011;51878;55.748;48.742;2022-09-09T06:28:57;0.73;;;0.70;;
65279;SDS011;51878;55.748;48.742;2022-09-09T06:31:26;0.98;;;0.70;;
65279;SDS011;51878;55.748;48.742;2022-09-09T06:33:57;0.88;;;0.65;;
65279;SDS011;51878;55.748;48.742;2022-09-09T06:36:26;0.80;;;0.80;;
65279;SDS011;51878;55.748;48.742;2022-09-09T06:38:55;0.73;;;0.73;;
65279;SDS011;51878;55.748;48.742;2022-09-09T06:41:23;1.88;;;0.65;;
65279;SDS011;51878;55.748;48.742;2022-09-09T06:43:52;0.75;;;0.70;;
65279;SDS011;51878;55.748;48.742;2022-09-09T06:46:21;1.00;;;0.90;;
65279;SDS011;51878;55.748;48.742;2022-09-09T06:48:50;0.73;;;0.73;;
65279;SDS011;51878;55.748;48.742;2022-09-09T06:51:18;0.70;;;0.70;;
65279;SDS011;51878;55.748;48.742;2022-09-09T06:53:49;1.27;;;0.60;;
65279;SDS011;51878;55.748;48.742;2022-09-09T06:58:50;1.33;;;0.60;;
65279;SDS011;51878;55.748;48.742;2022-09-09T07:01:19;0.77;;;0.70;;
65279;SDS011;51878;55.748;48.742;2022-09-09T07:03:51;0.70;;;0.70;;
65279;SDS011;51878;55.748;48.742;2022-09-09T07:06:22;0.70;;;0.70;;
65279;SDS011;51878;55.748;48.742;2022-09-09T07:08:52;0.50;;;0.50;;
65279;SDS011;51878;55.748;48.742;2022-09-09T07:11:25;0.82;;;0.82;;
65279;SDS011;51878;55.748;48.742;2022-09-09T07:13:57;0.70;;;0.70;;
65279;SDS011;51878;55.748;48.742;2022-09-09T07:16:25;0.70;;;0.70;;
65279;SDS011;51878;55.748;48.742;2022-09-09T07:18:54;0.60;;;0.60;;
65279;SDS011;51878;55.748;48.742;2022-09-09T07:21:25;2.15;;;0.82;;
65279;SDS011;51878;55.748;48.742;2022-09-09T07:23:53;1.80;;;0.95;;
65279;SDS011;51878;55.748;48.742;2022-09-09T07:26:22;0.50;;;0.47;;
65279;SDS011;51878;55.748;48.742;2022-09-09T07:28:51;0.70;;;0.70;;
65279;SDS011;51878;55.748;48.742;2022-09-09T07:31:21;0.73;;;0.73;;
65279;SDS011;51878;55.748;48.742;2022-09-09T07:33:53;0.88;;;0.85;;
65279;SDS011;51878;55.748;48.742;2022-09-09T07:36:21;0.60;;;0.60;;
65279;SDS011;51878;55.748;48.742;2022-09-09T07:38:51;1.02;;;0.77;;
65279;SDS011;51878;55.748;48.742;2022-09-09T07:41:21;2.60;;;0.82;;
65279;SDS011;51878;55.748;48.742;2022-09-09T07:43:49;0.80;;;0.80;;
65279;SDS011;51878;55.748;48.742;2022-09-09T07:46:17;1.90;;;0.70;;
65279;SDS011;51878;55.748;48.742;2022-09-09T07:48:49;1.88;;;0.80;;
65279;SDS011;51878;55.748;48.742;2022-09-09T07:51:22;0.85;;;0.82;;
65279;SDS011;51878;55.748;48.742;2022-09-09T07:53:52;4.38;;;1.02;;
65279;SDS011;51878;55.748;48.742;2022-09-09T07:58:53;0.98;;;0.93;;
65279;SDS011;51878;55.748;48.742;2022-09-09T08:04:00;2.05;;;1.00;;
65279;SDS011;51878;55.748;48.742;2022-09-09T08:06:30;0.70;;;0.70;;
65279;SDS011;51878;55.748;48.742;2022-09-09T08:08:59;1.13;;;0.90;;
65279;SDS011;51878;55.748;48.742;2022-09-09T08:11:27;0.70;;;0.70;;
65279;SDS011;51878;55.748;48.742;2022-09-09T08:13:56;3.13;;;0.82;;
65279;SDS011;51878;55.748;48.742;2022-09-09T08:16:33;0.90;;;0.70;;
65279;SDS011;51878;55.748;48.742;2022-09-09T08:19:03;3.17;;;0.90;;
65279;SDS011;51878;55.748;48.742;2022-09-09T08:21:31;0.68;;;0.60;;
65279;SDS011;51878;55.748;48.742;2022-09-09T08:24:00;0.80;;;0.80;;
65279;SDS011;51878;55.748;48.742;2022-09-09T08:26:29;0.85;;;0.85;;
65279;SDS011;51878;55.748;48.742;2022-09-09T08:28:58;0.90;;;0.73;;
65279;SDS011;51878;55.748;48.742;2022-09-09T08:31:27;0.80;;;0.80;;
65279;SDS011;51878;55.748;48.742;2022-09-09T08:33:57;0.95;;;0.75;;
65279;SDS011;51878;55.748;48.742;2022-09-09T08:36:32;1.10;;;1.00;;
65279;SDS011;51878;55.748;48.742;2022-09-09T08:39:03;0.80;;;0.80;;
65279;SDS011;51878;55.748;48.742;2022-09-09T08:52:29;1.10;;;1.08;;
65279;SDS011;51878;55.748;48.742;2022-09-09T08:55:05;0.80;;;0.70;;
65279;SDS011;51878;55.748;48.742;2022-09-09T08:57:50;0.80;;;0.80;;
65279;SDS011;51878;55.748;48.742;2022-09-09T09:00:19;0.95;;;0.75;;
65279;SDS011;51878;55.748;48.742;2022-09-09T09:05:37;0.82;;;0.82;;
65279;SDS011;51878;55.748;48.742;2022-09-09T09:08:26;1.40;;;0.63;;
65279;SDS011;51878;55.748;48.742;2022-09-09T09:11:15;0.60;;;0.60;;
65279;SDS011;51878;55.748;48.742;2022-09-09T09:16:19;1.63;;;0.70;;
65279;SDS011;51878;55.748;48.742;2022-09-09T09:19:08;0.82;;;0.80;;
65279;SDS011;51878;55.748;48.742;2022-09-09T09:21:44;1.00;;;0.80;;
65279;SDS011;51878;55.748;48.742;2022-09-09T09:24:31;0.70;;;0.70;;
65279;SDS011;51878;55.748;48.742;2022-09-09T09:27:31;0.80;;;0.80;;
65279;SDS011;51878;55.748;48.742;2022-09-09T09:30:23;1.00;;;0.77;;
65279;SDS011;51878;55.748;48.742;2022-09-09T09:32:56;1.08;;;0.75;;
65279;SDS011;51878;55.748;48.742;2022-09-09T09:35:27;0.93;;;0.75;;
65279;SDS011;51878;55.748;48.742;2022-09-09T09:37:55;0.70;;;0.70;;
65279;SDS011;51878;55.748;48.742;2022-09-09T09:40:52;2.83;;;0.73;;
65279;SDS011;51878;55.748;48.742;2022-09-09T09:43:30;3.40;;;0.80;;
65279;SDS011;51878;55.748;48.742;2022-09-09T09:46:04;2.42;;;0.80;;
65279;SDS011;51878;55.748;48.742;2022-09-09T09:48:42;2.22;;;0.65;;
65279;SDS011;51878;55.748;48.742;2022-09-09T09:51:10;0.68;;;0.68;;
65279;SDS011;51878;55.748;48.742;2022-09-09T09:53:42;3.47;;;0.75;;
65279;SDS011;51878;55.748;48.742;2022-09-09T09:56:11;1.40;;;0.80;;
65279;SDS011;51878;55.748;48.742;2022-09-09T10:01:46;1.65;;;1.00;;
65279;SDS011;51878;55.748;48.742;2022-09-09T10:04:16;1.90;;;0.80;;
65279;SDS011;51878;55.748;48.742;2022-09-09T10:06:50;1.45;;;0.90;;
65279;SDS011;51878;55.748;48.742;2022-09-09T10:09:21;0.95;;;0.80;;
65279;SDS011;51878;55.748;48.742;2022-09-09T10:17:47;0.85;;;0.85;;
65279;SDS011;51878;55.748;48.742;2022-09-09T10:26:30;1.52;;;1.05;;
65279;SDS011;51878;55.748;48.742;2022-09-09T10:29:59;3.38;;;0.95;;
65279;SDS011;51878;55.748;48.742;2022-09-09T10:40:08;6.47;;;1.15;;
65279;SDS011;51878;55.748;48.742;2022-09-09T10:42:43;1.13;;;1.05;;
65279;SDS011;51878;55.748;48.742;2022-09-09T10:48:18;0.90;;;0.90;;
65279;SDS011;51878;55.748;48.742;2022-09-09T10:54:19;1.90;;;0.90;;
65279;SDS011;51878;55.748;48.742;2022-09-09T10:56:54;5.03;;;1.80;;
65279;SDS011;51878;55.748;48.742;2022-09-09T10:59:28;1.00;;;0.98;;
65279;SDS011;51878;55.748;48.742;2022-09-09T11:02:21;3.13;;;1.00;;
65279;SDS011;51878;55.748;48.742;2022-09-09T11:04:54;0.80;;;0.80;;
65279;SDS011;51878;55.748;48.742;2022-09-09T11:07:39;1.52;;;1.00;;
65279;SDS011;51878;55.748;48.742;2022-09-09T11:10:19;0.93;;;0.88;;
65279;SDS011;51878;55.748;48.742;2022-09-09T11:12:58;2.63;;;1.00;;
65279;SDS011;51878;55.748;48.742;2022-09-09T11:15:31;0.93;;;0.93;;
65279;SDS011;51878;55.748;48.742;2022-09-09T11:18:09;2.00;;;1.10;;
65279;SDS011;51878;55.748;48.742;2022-09-09T11:20:42;1.98;;;1.20;;
65279;SDS011;51878;55.748;48.742;2022-09-09T11:23:12;1.83;;;1.00;;
65279;SDS011;51878;55.748;48.742;2022-09-09T11:25:45;1.60;;;0.90;;
65279;SDS011;51878;55.748;48.742;2022-09-09T11:28:41;1.35;;;1.02;;
65279;SDS011;51878;55.748;48.742;2022-09-09T11:40:15;1.00;;;0.73;;
65279;SDS011;51878;55.748;48.742;2022-09-09T11:42:49;1.95;;;0.75;;
65279;SDS011;51878;55.748;48.742;2022-09-09T11:45:51;2.97;;;1.00;;
65279;SDS011;51878;55.748;48.742;2022-09-09T11:53:49;2.53;;;1.08;;
65279;SDS011;51878;55.748;48.742;2022-09-09T12:01:34;4.03;;;0.80;;
65279;SDS011;51878;55.748;48.742;2022-09-09T12:04:11;0.95;;;0.70;;
65279;SDS011;51878;55.748;48.742;2022-09-09T12:09:42;2.30;;;0.93;;
65279;SDS011;51878;55.748;48.742;2022-09-09T12:14:59;1.05;;;0.90;;
65279;SDS011;51878;55.748;48.742;2022-09-09T12:17:31;2.40;;;0.80;;
65279;SDS011;51878;55.748;48.742;2022-09-09T12:20:08;1.42;;;1.00;;
65279;SDS011;51878;55.748;48.742;2022-09-09T12:23:09;1.30;;;1.02;;
65279;SDS011;51878;55.748;48.742;2022-09-09T12:26:00;6.38;;;1.10;;
65279;SDS011;51878;55.748;48.742;2022-09-09T12:34:16;2.88;;;1.00;;
65279;SDS011;51878;55.748;48.742;2022-09-09T12:36:43;1.25;;;0.80;;
65279;SDS011;51878;55.748;48.742;2022-09-09T12:39:21;5.80;;;1.52;;
65279;SDS011;51878;55.748;48.742;2022-09-09T12:41:56;1.83;;;1.00;;
65279;SDS011;51878;55.748;48.742;2022-09-09T12:44:24;2.05;;;1.13;;
65279;SDS011;51878;55.748;48.742;2022-09-09T12:46:52;6.15;;;1.20;;
65279;SDS011;51878;55.748;48.742;2022-09-09T12:49:29;7.55;;;1.27;;
65279;SDS011;51878;55.748;48.742;2022-09-09T12:52:01;1.65;;;1.55;;
65279;SDS011;51878;55.748;48.742;2022-09-09T12:54:42;6.18;;;1.30;;
65279;SDS011;51878;55.748;48.742;2022-09-09T12:57:15;1.60;;;1.10;;
65279;SDS011;51878;55.748;48.742;2022-09-09T12:59:43;1.77;;;1.10;;
65279;SDS011;51878;55.748;48.742;2022-09-09T13:02:19;2.20;;;1.48;;
65279;SDS011;51878;55.748;48.742;2022-09-09T13:04:50;4.00;;;1.10;;
65279;SDS011;51878;55.748;48.742;2022-09-09T13:07:18;1.00;;;1.00;;
65279;SDS011;51878;55.748;48.742;2022-09-09T13:09:46;1.70;;;0.80;;
65279;SDS011;51878;55.748;48.742;2022-09-09T13:12:19;1.13;;;0.90;;
65279;SDS011;51878;55.748;48.742;2022-09-09T13:14:52;6.72;;;1.10;;
65279;SDS011;51878;55.748;48.742;2022-09-09T13:17:23;1.08;;;0.98;;
65279;SDS011;51878;55.748;48.742;2022-09-09T13:19:52;7.35;;;0.93;;
65279;SDS011;51878;55.748;48.742;2022-09-09T13:24:58;2.40;;;1.10;;
65279;SDS011;51878;55.748;48.742;2022-09-09T13:27:31;1.35;;;1.17;;
65279;SDS011;51878;55.748;48.742;2022-09-09T13:38:24;1.30;;;1.02;;
65279;SDS011;51878;55.748;48.742;2022-09-09T13:43:31;1.73;;;1.00;;
65279;SDS011;51878;55.748;48.742;2022-09-09T13:48:59;1.63;;;0.90;;
65279;SDS011;51878;55.748;48.742;2022-09-09T13:51:36;1.85;;;1.00;;
65279;SDS011;51878;55.748;48.742;2022-09-09T13:54:08;1.33;;;1.10;;
65279;SDS011;51878;55.748;48.742;2022-09-09T13:56:37;1.45;;;0.90;;
65279;SDS011;51878;55.748;48.742;2022-09-09T13:59:06;5.68;;;1.30;;
65279;SDS011;51878;55.748;48.742;2022-09-09T14:01:38;4.70;;;1.30;;
65279;SDS011;51878;55.748;48.742;2022-09-09T14:04:05;2.92;;;1.10;;
65279;SDS011;51878;55.748;48.742;2022-09-09T14:06:33;11.32;;;1.70;;
65279;SDS011;51878;55.748;48.742;2022-09-09T14:09:10;5.25;;;1.50;;
65279;SDS011;51878;55.748;48.742;2022-09-09T14:11:39;10.27;;;1.88;;
65279;SDS011;51878;55.748;48.742;2022-09-09T14:14:07;3.50;;;1.40;;
65279;SDS011;51878;55.748;48.742;2022-09-09T14:16:34;1.23;;;1.13;;
65279;SDS011;51878;55.748;48.742;2022-09-09T14:19:05;2.42;;;1.30;;
65279;SDS011;51878;55.748;48.742;2022-09-09T14:21:32;1.77;;;1.20;;
65279;SDS011;51878;55.748;48.742;2022-09-09T14:23:59;5.97;;;1.40;;
65279;SDS011;51878;55.748;48.742;2022-09-09T14:26:26;2.17;;;1.15;;
65279;SDS011;51878;55.748;48.742;2022-09-09T14:28:57;3.70;;;1.10;;
65279;SDS011;51878;55.748;48.742;2022-09-09T14:31:28;1.38;;;1.10;;
65279;SDS011;51878;55.748;48.742;2022-09-09T14:33:55;1.98;;;1.17;;
65279;SDS011;51878;55.748;48.742;2022-09-09T14:36:22;1.80;;;1.25;;
65279;SDS011;51878;55.748;48.742;2022-09-09T14:38:50;1.55;;;1.20;;
65279;SDS011;51878;55.748;48.742;2022-09-09T14:41:18;2.05;;;1.40;;
65279;SDS011;51878;55.748;48.742;2022-09-09T14:43:49;4.22;;;1.30;;
65279;SDS011;51878;55.748;48.742;2022-09-09T14:46:17;4.10;;;1.30;;
65279;SDS011;51878;55.748;48.742;2022-09-09T14:48:46;1.00;;;1.00;;
65279;SDS011;51878;55.748;48.742;2022-09-09T14:51:19;2.55;;;1.30;;
65279;SDS011;51878;55.748;48.742;2022-09-09T14:53:51;1.80;;;1.20;;
65279;SDS011;51878;55.748;48.742;2022-09-09T14:56:24;6.80;;;1.67;;
65279;SDS011;51878;55.748;48.742;2022-09-09T14:58:54;4.80;;;1.40;;
65279;SDS011;51878;55.748;48.742;2022-09-09T15:01:22;6.70;;;1.40;;
65279;SDS011;51878;55.748;48.742;2022-09-09T15:03:51;4.72;;;1.52;;
65279;SDS011;51878;55.748;48.742;2022-09-09T15:06:25;2.80;;;1.55;;
65279;SDS011;51878;55.748;48.742;2022-09-09T15:08:53;6.43;;;1.63;;
65279;SDS011;51878;55.748;48.742;2022-09-09T15:11:20;1.20;;;1.10;;
65279;SDS011;51878;55.748;48.742;2022-09-09T15:13:51;2.67;;;1.30;;
65279;SDS011;51878;55.748;48.742;2022-09-09T15:16:23;1.63;;;1.30;;
65279;SDS011;51878;55.748;48.742;2022-09-09T15:18:53;1.42;;;1.25;;
65279;SDS011;51878;55.748;48.742;2022-09-09T15:21:24;1.40;;;1.20;;
65279;SDS011;51878;55.748;48.742;2022-09-09T15:23:54;1.52;;;1.30;;
65279;SDS011;51878;55.748;48.742;2022-09-09T15:26:22;1.88;;;1.20;;
65279;SDS011;51878;55.748;48.742;2022-09-09T15:28:49;3.03;;;1.33;;
65279;SDS011;51878;55.748;48.742;2022-09-09T15:31:22;1.30;;;1.20;;
65279;SDS011;51878;55.748;48.742;2022-09-09T15:33:54;2.58;;;1.30;;
65279;SDS011;51878;55.748;48.742;2022-09-09T15:38:56;10.70;;;1.40;;
65279;SDS011;51878;55.748;48.742;2022-09-09T15:41:24;1.50;;;1.38;;
65279;SDS011;51878;55.748;48.742;2022-09-09T15:43:52;5.82;;;1.30;;
65279;SDS011;51878;55.748;48.742;2022-09-09T15:48:57;6.03;;;1.60;;
65279;SDS011;51878;55.748;48.742;2022-09-09T15:51:55;3.00;;;1.20;;
65279;SDS011;51878;55.748;48.742;2022-09-09T15:54:24;11.77;;;1.35;;
65279;SDS011;51878;55.748;48.742;2022-09-09T15:56:58;1.42;;;1.10;;
65279;SDS011;51878;55.748;48.742;2022-09-09T15:59:28;1.42;;;1.10;;
65279;SDS011;51878;55.748;48.742;2022-09-09T16:01:56;2.00;;;1.25;;
65279;SDS011;51878;55.748;48.742;2022-09-09T16:04:27;3.13;;;1.30;;
65279;SDS011;51878;55.748;48.742;2022-09-09T16:06:58;1.88;;;1.17;;
65279;SDS011;51878;55.748;48.742;2022-09-09T16:09:28;1.88;;;1.27;;
65279;SDS011;51878;55.748;48.742;2022-09-09T16:11:57;2.10;;;1.38;;
65279;SDS011;51878;55.748;48.742;2022-09-09T16:14:25;2.63;;;1.20;;
65279;SDS011;51878;55.748;48.742;2022-09-09T16:16:52;1.30;;;1.20;;
65279;SDS011;51878;55.748;48.742;2022-09-09T16:19:19;1.50;;;1.40;;
65279;SDS011;51878;55.748;48.742;2022-09-09T16:21:47;1.08;;;1.00;;
65279;SDS011;51878;55.748;48.742;2022-09-09T16:24:16;3.17;;;1.20;;
65279;SDS011;51878;55.748;48.742;2022-09-09T16:26:49;7.95;;;1.40;;
65279;SDS011;51878;55.748;48.742;2022-09-09T16:29:18;3.35;;;1.25;;
65279;SDS011;51878;55.748;48.742;2022-09-09T16:31:47;2.00;;;1.30;;
65279;SDS011;51878;55.748;48.742;2022-09-09T16:34:15;2.20;;;1.40;;
65279;SDS011;51878;55.748;48.742;2022-09-09T16:36:44;2.15;;;1.33;;
65279;SDS011;51878;55.748;48.742;2022-09-09T16:39:16;3.75;;;1.30;;
65279;SDS011;51878;55.748;48.742;2022-09-09T16:41:45;3.67;;;1.52;;
65279;SDS011;51878;55.748;48.742;2022-09-09T16:44:14;4.15;;;1.20;;
65279;SDS011;51878;55.748;48.742;2022-09-09T16:46:45;1.75;;;1.30;;
65279;SDS011;51878;55.748;48.742;2022-09-09T16:49:15;1.58;;;1.40;;
65279;SDS011;51878;55.748;48.742;2022-09-09T16:51:45;5.28;;;1.48;;
65279;SDS011;51878;55.748;48.742;2022-09-09T16:54:14;2.08;;;1.50;;
65279;SDS011;51878;55.748;48.742;2022-09-09T16:56:44;3.42;;;1.42;;
65279;SDS011;51878;55.748;48.742;2022-09-09T16:59:16;2.25;;;1.90;;
65279;SDS011;51878;55.748;48.742;2022-09-09T17:01:46;5.88;;;1.52;;
65279;SDS011;51878;55.748;48.742;2022-09-09T17:04:16;1.88;;;1.70;;
65279;SDS011;51878;55.748;48.742;2022-09-09T17:06:47;3.88;;;1.50;;
65279;SDS011;51878;55.748;48.742;2022-09-09T17:09:16;2.05;;;1.48;;
65279;SDS011;51878;55.748;48.742;2022-09-09T17:11:44;2.40;;;1.52;;
65279;SDS011;51878;55.748;48.742;2022-09-09T17:14:15;2.35;;;1.80;;
65279;SDS011;51878;55.748;48.742;2022-09-09T17:16:44;6.32;;;1.40;;
65279;SDS011;51878;55.748;48.742;2022-09-09T17:19:11;4.15;;;1.65;;
65279;SDS011;51878;55.748;48.742;2022-09-09T17:21:39;2.60;;;1.80;;
65279;SDS011;51878;55.748;48.742;2022-09-09T17:24:28;1.80;;;1.60;;
65279;SDS011;51878;55.748;48.742;2022-09-09T17:26:56;7.25;;;1.90;;
65279;SDS011;51878;55.748;48.742;2022-09-09T17:29:24;3.08;;;1.73;;
65279;SDS011;51878;55.748;48.742;2022-09-09T17:31:51;2.42;;;1.90;;